createdAt,value
2017-11-15T00:00:49.233Z,24.13
2017-11-15T00:03:16.802Z,21.47
2017-11-15T00:05:44.316Z,25.77
2017-11-15T00:08:11.903Z,20.37
2017-11-15T00:10:39.469Z,17.97
2017-11-15T00:13:07.004Z,25.80
2017-11-15T00:15:35.277Z,21.20
2017-11-15T00:18:03.589Z,21.17
2017-11-15T00:20:31.137Z,27.67
2017-11-15T00:22:58.696Z,19.07
2017-11-15T00:25:26.220Z,21.47
2017-11-15T00:27:53.728Z,21.57
2017-11-15T00:30:21.248Z,18.37
2017-11-15T00:32:49.511Z,20.37
2017-11-15T00:35:17.642Z,21.23
2017-11-15T00:37:45.149Z,23.67
2017-11-15T00:40:13.431Z,24.60
2017-11-15T00:42:41.434Z,25.30
2017-11-15T00:45:08.960Z,21.83
2017-11-15T00:47:37.236Z,21.37
2017-11-15T00:50:05.528Z,20.40
2017-11-15T00:52:33.093Z,19.90
2017-11-15T00:55:00.616Z,21.77
2017-11-15T00:57:28.132Z,18.03
2017-11-15T00:59:55.635Z,23.70
2017-11-15T01:02:23.925Z,23.77
2017-11-15T01:04:52.215Z,24.77
2017-11-15T01:07:20.187Z,24.07
2017-11-15T01:09:47.696Z,22.40
2017-11-15T01:12:16.730Z,21.30
2017-11-15T01:14:44.252Z,22.27
2017-11-15T01:17:13.280Z,19.10
2017-11-15T01:19:41.555Z,21.30
2017-11-15T01:22:09.448Z,28.53
2017-11-15T01:24:36.986Z,20.80
2017-11-15T01:27:04.543Z,22.80
2017-11-15T01:29:32.057Z,26.23
2017-11-15T01:31:59.663Z,21.13
2017-11-15T01:34:27.225Z,20.70
2017-11-15T01:36:54.792Z,27.33
2017-11-15T01:39:22.345Z,25.47
2017-11-15T01:41:49.899Z,22.03
2017-11-15T01:44:17.424Z,21.73
2017-11-15T01:46:46.431Z,24.20
2017-11-15T01:49:14.732Z,21.83
2017-11-15T01:51:42.463Z,20.47
2017-11-15T01:54:10.759Z,28.03
2017-11-15T01:56:38.276Z,22.57
2017-11-15T01:59:05.795Z,24.33
2017-11-15T02:01:38.145Z,21.90
2017-11-15T02:04:05.721Z,26.43
2017-11-15T02:06:33.228Z,26.87
2017-11-15T02:09:00.751Z,27.50
2017-11-15T02:11:28.287Z,32.43
2017-11-15T02:13:55.847Z,34.97
2017-11-15T02:16:24.124Z,31.13
2017-11-15T02:18:51.661Z,29.67
2017-11-15T02:21:19.964Z,28.40
2017-11-15T02:23:47.485Z,32.63
2017-11-15T02:26:15.756Z,30.43
2017-11-15T02:28:43.276Z,28.47
2017-11-15T02:31:10.777Z,30.83
2017-11-15T02:33:39.048Z,26.07
2017-11-15T02:36:06.566Z,29.20
2017-11-15T02:38:34.072Z,29.30
2017-11-15T02:41:02.371Z,28.83
2017-11-15T02:43:29.871Z,28.00
2017-11-15T02:45:57.400Z,25.33
2017-11-15T02:48:24.904Z,27.70
2017-11-15T02:50:52.504Z,25.87
2017-11-15T02:53:20.016Z,29.67
2017-11-15T02:55:47.624Z,28.10
2017-11-15T02:58:15.488Z,25.87
2017-11-15T03:00:43.016Z,28.37
2017-11-15T03:03:10.604Z,27.47
2017-11-15T03:05:38.120Z,25.87
2017-11-15T03:08:05.628Z,31.57
2017-11-15T03:10:33.162Z,34.20
2017-11-15T03:13:01.428Z,27.40
2017-11-15T03:15:29.844Z,31.67
2017-11-15T03:17:57.395Z,26.57
2017-11-15T03:20:25.380Z,93.43
2017-11-15T03:22:52.906Z,32.47
2017-11-15T03:25:21.167Z,29.17
2017-11-15T03:27:49.505Z,24.93
2017-11-15T03:30:17.045Z,31.20
2017-11-15T03:32:44.576Z,37.20
2017-11-15T03:35:12.852Z,28.77
2017-11-15T03:37:41.143Z,28.00
2017-11-15T03:40:08.648Z,27.77
2017-11-15T03:42:36.169Z,29.90
2017-11-15T03:45:03.683Z,30.37
2017-11-15T03:47:31.203Z,23.93
2017-11-15T03:49:59.288Z,22.37
2017-11-15T03:52:26.812Z,25.33
2017-11-15T03:54:54.317Z,24.93
2017-11-15T03:57:22.615Z,25.60
2017-11-15T03:59:50.915Z,24.93
2017-11-15T04:02:18.480Z,24.33
2017-11-15T04:04:46.199Z,25.60
2017-11-15T04:07:14.510Z,23.80
2017-11-15T04:09:42.027Z,25.60
2017-11-15T04:12:10.361Z,25.00
2017-11-15T04:14:37.881Z,25.00
2017-11-15T04:17:06.155Z,28.83
2017-11-15T04:19:34.566Z,24.33
2017-11-15T04:22:02.072Z,26.63
2017-11-15T04:24:29.596Z,29.17
2017-11-15T04:26:57.104Z,21.53
2017-11-15T04:29:24.628Z,23.40
2017-11-15T04:31:52.129Z,24.17
2017-11-15T04:34:20.953Z,23.03
2017-11-15T04:36:48.458Z,19.67
2017-11-15T04:39:17.487Z,21.10
2017-11-15T04:41:45.000Z,21.30
2017-11-15T04:44:12.519Z,24.67
2017-11-15T04:46:40.020Z,21.07
2017-11-15T04:49:07.546Z,19.90
2017-11-15T04:51:35.050Z,20.90
2017-11-15T04:54:03.316Z,20.23
2017-11-15T04:56:31.634Z,21.70
2017-11-15T04:58:59.143Z,20.60
2017-11-15T05:01:26.764Z,22.33
2017-11-15T05:03:54.282Z,19.77
2017-11-15T05:06:22.587Z,20.83
2017-11-15T05:08:50.088Z,19.43
2017-11-15T05:11:17.616Z,18.03
2017-11-15T05:13:45.155Z,19.47
2017-11-15T05:16:12.672Z,17.57
2017-11-15T05:18:40.991Z,20.90
2017-11-15T05:21:08.516Z,19.50
2017-11-15T05:23:36.113Z,21.67
2017-11-15T05:26:03.673Z,19.17
2017-11-15T05:28:31.228Z,20.60
2017-11-15T05:30:58.752Z,18.60
2017-11-15T05:33:26.347Z,18.73
2017-11-15T05:35:54.731Z,23.00
2017-11-15T05:38:22.236Z,18.13
2017-11-15T05:40:49.834Z,18.97
2017-11-15T05:43:18.120Z,18.63
2017-11-15T05:45:45.639Z,21.73
2017-11-15T05:48:13.161Z,19.50
2017-11-15T05:50:40.792Z,18.90
2017-11-15T05:53:08.296Z,14.63
2017-11-15T05:55:37.322Z,18.90
2017-11-15T05:58:05.628Z,18.73
2017-11-15T06:00:33.184Z,20.97
2017-11-15T06:03:01.248Z,16.80
2017-11-15T06:05:28.756Z,23.37
2017-11-15T06:07:56.372Z,20.00
2017-11-15T06:10:23.875Z,18.73
2017-11-15T06:12:51.451Z,17.10
2017-11-15T06:15:19.015Z,17.53
2017-11-15T06:17:46.545Z,17.93
2017-11-15T06:20:14.134Z,18.50
2017-11-15T06:22:41.728Z,17.97
2017-11-15T06:25:09.167Z,15.73
2017-11-15T06:27:37.721Z,18.43
2017-11-15T06:30:05.143Z,18.63
2017-11-15T06:32:34.005Z,18.60
2017-11-15T06:35:02.315Z,17.63
2017-11-15T06:37:29.845Z,18.83
2017-11-15T06:39:57.904Z,16.87
2017-11-15T06:42:25.480Z,18.60
2017-11-15T06:44:52.984Z,20.43
2017-11-15T06:47:21.308Z,19.03
2017-11-15T06:49:48.811Z,20.37
2017-11-15T06:52:16.313Z,15.17
2017-11-15T06:54:43.879Z,14.50
2017-11-15T06:57:11.388Z,15.87
2017-11-15T06:59:39.000Z,17.13
2017-11-15T07:02:06.510Z,15.33
2017-11-15T07:04:34.121Z,14.90
2017-11-15T07:07:01.627Z,16.43
2017-11-15T07:09:29.148Z,15.83
2017-11-15T07:11:56.696Z,15.87
2017-11-15T07:14:24.255Z,16.47
2017-11-15T07:16:51.760Z,14.50
2017-11-15T07:19:19.299Z,17.80
2017-11-15T07:21:46.803Z,15.30
2017-11-15T07:24:15.088Z,16.37
2017-11-15T07:26:44.076Z,14.73
2017-11-15T07:29:12.360Z,16.37
2017-11-15T07:31:39.932Z,15.33
2017-11-15T07:34:07.485Z,15.00
2017-11-15T07:36:35.054Z,16.33
2017-11-15T07:39:02.563Z,14.87
2017-11-15T07:41:30.166Z,15.23
2017-11-15T07:43:57.720Z,15.97
2017-11-15T07:46:25.264Z,16.53
2017-11-15T07:48:53.655Z,14.97
2017-11-15T07:51:21.329Z,15.73
2017-11-15T07:53:48.879Z,13.97
2017-11-15T07:56:16.444Z,13.63
2017-11-15T07:58:43.960Z,15.00
2017-11-15T08:01:12.901Z,15.33
2017-11-15T08:03:40.458Z,17.40
2017-11-15T08:06:07.999Z,15.90
2017-11-15T08:08:35.561Z,17.63
2017-11-15T08:11:03.125Z,19.93
2017-11-15T08:13:30.690Z,19.43
2017-11-15T08:15:58.207Z,19.83
2017-11-15T08:18:25.718Z,20.87
2017-11-15T08:20:53.248Z,18.30
2017-11-15T08:23:20.828Z,24.17
2017-11-15T08:25:48.352Z,20.07
2017-11-15T08:28:16.624Z,27.63
2017-11-15T08:30:44.942Z,22.17
2017-11-15T08:33:12.460Z,24.57
2017-11-15T08:35:41.161Z,23.47
2017-11-15T08:38:08.694Z,22.47
2017-11-15T08:40:37.006Z,21.43
2017-11-15T08:43:04.528Z,21.50
2017-11-15T08:45:32.033Z,20.87
2017-11-15T08:47:59.569Z,25.43
2017-11-15T08:50:27.861Z,25.23
2017-11-15T08:52:55.392Z,32.90
2017-11-15T08:55:23.672Z,26.63
2017-11-15T08:57:52.065Z,26.43
2017-11-15T09:00:19.581Z,29.90
2017-11-15T09:02:47.184Z,30.93
2017-11-15T09:05:14.689Z,31.03
2017-11-15T09:07:42.216Z,30.40
2017-11-15T09:10:09.724Z,28.30
2017-11-15T09:12:37.255Z,28.17
2017-11-15T09:15:04.765Z,29.77
2017-11-15T09:17:32.321Z,28.77
2017-11-15T09:20:00.596Z,25.87
2017-11-15T09:22:28.894Z,25.50
2017-11-15T09:24:56.408Z,21.27
2017-11-15T09:27:23.931Z,25.17
2017-11-15T09:29:51.464Z,24.90
2017-11-15T09:32:19.012Z,20.27
2017-11-15T09:34:46.593Z,22.90
2017-11-15T09:37:14.109Z,19.13
2017-11-15T09:39:42.417Z,22.63
2017-11-15T09:42:09.925Z,22.47
2017-11-15T09:44:37.444Z,24.53
2017-11-15T09:47:04.971Z,21.47
2017-11-15T09:49:33.285Z,23.40
2017-11-15T09:52:00.780Z,21.83
2017-11-15T09:54:28.300Z,23.43
2017-11-15T09:56:55.850Z,24.43
2017-11-15T09:59:23.376Z,22.30
2017-11-15T10:01:51.680Z,22.00
2017-11-15T10:04:19.984Z,22.07
2017-11-15T10:06:47.522Z,21.73
2017-11-15T10:09:16.973Z,20.00
2017-11-15T10:11:44.571Z,19.77
2017-11-15T10:14:12.112Z,20.50
2017-11-15T10:16:40.414Z,18.50
2017-11-15T10:19:07.924Z,21.23
2017-11-15T10:21:35.528Z,21.70
2017-11-15T10:24:03.084Z,19.47
2017-11-15T10:26:30.621Z,22.30
2017-11-15T10:28:59.338Z,20.17
2017-11-15T10:31:26.893Z,22.23
2017-11-15T10:33:55.084Z,20.43
2017-11-15T10:36:22.608Z,25.23
2017-11-15T10:38:50.880Z,19.90
2017-11-15T10:41:19.169Z,25.73
2017-11-15T10:43:46.743Z,21.37
2017-11-15T10:46:14.292Z,22.07
2017-11-15T10:48:41.801Z,21.53
2017-11-15T10:51:10.126Z,20.63
2017-11-15T10:53:37.641Z,23.70
2017-11-15T10:56:05.239Z,21.23
2017-11-15T10:58:32.758Z,22.73
2017-11-15T11:01:00.283Z,20.00
2017-11-15T11:03:27.788Z,19.93
2017-11-15T11:05:55.320Z,20.53
2017-11-15T11:08:22.828Z,22.53
2017-11-15T11:10:51.020Z,17.87
2017-11-15T11:13:18.529Z,20.33
2017-11-15T11:15:46.064Z,22.37
2017-11-15T11:18:13.589Z,19.27
2017-11-15T11:20:41.128Z,17.07
2017-11-15T11:23:08.648Z,17.77
2017-11-15T11:25:36.192Z,18.13
2017-11-15T11:28:03.696Z,20.63
2017-11-15T11:30:31.969Z,17.37
2017-11-15T11:33:00.368Z,20.23
2017-11-15T11:35:27.897Z,20.53
2017-11-15T11:37:56.187Z,18.07
2017-11-15T11:40:24.488Z,17.93
2017-11-15T11:42:52.036Z,18.97
2017-11-15T11:45:19.543Z,18.37
2017-11-15T11:47:47.084Z,17.87
2017-11-15T11:50:14.595Z,19.17
2017-11-15T11:52:42.996Z,20.07
2017-11-15T11:55:10.550Z,19.70
2017-11-15T11:57:38.083Z,19.70
2017-11-15T12:00:06.357Z,20.27
2017-11-15T12:02:34.645Z,19.60
2017-11-15T12:05:02.932Z,23.30
2017-11-15T12:07:30.492Z,17.23
2017-11-15T12:09:58.005Z,17.30
2017-11-15T12:12:25.548Z,18.13
2017-11-15T12:14:53.053Z,20.07
2017-11-15T12:17:21.325Z,19.10
2017-11-15T12:19:49.609Z,18.50
2017-11-15T12:22:17.184Z,19.83
2017-11-15T12:24:44.704Z,16.17
2017-11-15T12:27:12.422Z,18.47
2017-11-15T12:29:39.944Z,18.93
2017-11-15T12:32:08.321Z,17.90
2017-11-15T12:34:36.715Z,17.53
2017-11-15T12:37:04.280Z,17.27
2017-11-15T12:39:31.842Z,18.90
2017-11-15T12:41:59.349Z,19.03
2017-11-15T12:44:28.390Z,18.90
2017-11-15T12:46:55.949Z,18.37
2017-11-15T12:49:24.236Z,19.40
2017-11-15T12:51:52.249Z,19.07
2017-11-15T12:54:20.241Z,19.20
2017-11-15T12:56:48.633Z,20.00
2017-11-15T12:59:16.145Z,19.10
2017-11-15T13:01:43.667Z,15.83
2017-11-15T13:04:11.179Z,16.73
2017-11-15T13:06:39.485Z,16.93
2017-11-15T13:09:06.993Z,15.97
2017-11-15T13:11:35.286Z,17.20
2017-11-15T13:14:03.711Z,18.73
2017-11-15T13:16:31.262Z,16.20
2017-11-15T13:18:58.822Z,18.90
2017-11-15T13:21:26.350Z,16.67
2017-11-15T13:23:54.653Z,16.07
2017-11-15T13:26:22.181Z,15.77
2017-11-15T13:28:50.484Z,17.73
2017-11-15T13:31:18.008Z,16.23
2017-11-15T13:33:46.284Z,15.33
2017-11-15T13:36:13.813Z,16.60
2017-11-15T13:38:41.337Z,17.20
2017-11-15T13:41:08.868Z,16.30
2017-11-15T13:43:37.141Z,15.10
2017-11-15T13:46:05.445Z,16.30
2017-11-15T13:48:33.000Z,16.23
2017-11-15T13:51:00.537Z,15.83
2017-11-15T13:53:28.829Z,16.20
2017-11-15T13:55:56.401Z,20.93
2017-11-15T13:58:23.956Z,15.97
2017-11-15T14:00:51.485Z,17.80
2017-11-15T14:03:19.795Z,16.03
2017-11-15T14:05:47.318Z,15.80
2017-11-15T14:08:15.629Z,17.10
2017-11-15T14:10:43.152Z,16.07
2017-11-15T14:13:10.656Z,18.07
2017-11-15T14:15:38.205Z,15.80
2017-11-15T14:18:05.765Z,15.50
2017-11-15T14:20:33.322Z,15.93
2017-11-15T14:23:00.834Z,16.73
2017-11-15T14:25:28.346Z,17.60
2017-11-15T14:27:55.877Z,15.80
2017-11-15T14:30:24.168Z,17.50
2017-11-15T14:32:51.939Z,16.40
2017-11-15T14:35:19.457Z,16.43
2017-11-15T14:37:47.260Z,15.10
2017-11-15T14:40:14.769Z,15.40
2017-11-15T14:42:42.374Z,15.27
2017-11-15T14:45:10.061Z,14.73
2017-11-15T14:47:37.597Z,13.90
2017-11-15T14:50:05.105Z,16.03
2017-11-15T14:52:32.634Z,14.30
2017-11-15T14:55:00.135Z,13.80
2017-11-15T14:57:27.939Z,13.30
2017-11-15T14:59:55.449Z,13.03
2017-11-15T15:02:22.981Z,11.63
2017-11-15T15:04:50.487Z,14.40
2017-11-15T15:07:18.796Z,13.50
2017-11-15T15:09:46.301Z,12.27
2017-11-15T15:12:13.903Z,12.57
2017-11-15T15:14:41.472Z,11.80
2017-11-15T15:17:08.977Z,13.33
2017-11-15T15:19:36.516Z,12.13
2017-11-15T15:22:04.021Z,12.67
2017-11-15T15:24:32.311Z,12.10
2017-11-15T15:26:59.828Z,12.90
2017-11-15T15:29:28.127Z,18.20
2017-11-15T15:31:56.397Z,15.20
2017-11-15T15:34:24.684Z,15.13
2017-11-15T15:36:52.188Z,15.30
2017-11-15T15:39:19.817Z,14.93
2017-11-15T15:41:47.328Z,13.73
2017-11-15T15:44:14.857Z,14.00
2017-11-15T15:46:42.365Z,16.43
2017-11-15T15:49:10.660Z,15.73
2017-11-15T15:51:38.942Z,16.57
2017-11-15T15:54:06.460Z,16.83
2017-11-15T15:56:33.978Z,15.33
2017-11-15T15:59:01.527Z,15.50
2017-11-15T16:01:29.032Z,17.93
2017-11-15T16:03:56.537Z,16.13
2017-11-15T16:06:24.100Z,13.13
2017-11-15T16:08:51.603Z,13.90
2017-11-15T16:11:19.208Z,16.50
2017-11-15T16:13:46.712Z,15.33
2017-11-15T16:16:15.008Z,16.83
2017-11-15T16:18:43.284Z,15.73
2017-11-15T16:24:01.163Z,15.70
2017-11-15T16:26:28.648Z,16.03
2017-11-15T16:28:56.079Z,15.40
2017-11-15T16:31:23.564Z,13.80
2017-11-15T16:33:51.006Z,12.87
2017-11-15T16:36:18.476Z,13.13
2017-11-15T16:38:46.036Z,19.80
2017-11-15T16:41:13.476Z,18.17
2017-11-15T16:43:40.920Z,18.33
2017-11-15T16:46:08.356Z,17.63
2017-11-15T16:48:36.556Z,14.63
2017-11-15T16:51:04.122Z,15.00
2017-11-15T16:53:31.596Z,13.53
2017-11-15T16:55:59.056Z,12.73
2017-11-15T16:58:26.508Z,15.90
2017-11-15T17:00:54.474Z,15.60
2017-11-15T17:03:21.936Z,15.20
2017-11-15T17:05:49.392Z,12.70
2017-11-15T17:08:16.832Z,16.07
2017-11-15T17:10:44.278Z,15.40
2017-11-15T17:13:11.880Z,17.47
2017-11-15T17:15:39.325Z,16.23
2017-11-15T17:18:06.772Z,17.27
2017-11-15T17:20:34.212Z,18.50
2017-11-15T17:23:01.688Z,19.47
2017-11-15T17:25:29.130Z,17.40
2017-11-15T17:27:56.571Z,16.87
2017-11-15T17:30:24.067Z,14.17
2017-11-15T17:32:51.503Z,15.10
2017-11-15T17:35:18.944Z,14.70
2017-11-15T17:37:46.424Z,15.73
2017-11-15T17:40:13.864Z,13.83
2017-11-15T17:42:41.317Z,14.07
2017-11-15T17:45:08.757Z,15.93
2017-11-15T17:47:36.660Z,17.03
2017-11-15T17:50:04.115Z,16.20
2017-11-15T17:52:31.553Z,14.80
2017-11-15T17:54:58.996Z,18.80
2017-11-15T17:57:26.444Z,17.13
2017-11-15T17:59:53.950Z,16.47
2017-11-15T18:02:21.392Z,16.77
2017-11-15T18:04:48.863Z,16.40
2017-11-15T18:07:16.296Z,15.90
2017-11-15T18:09:43.750Z,16.60
2017-11-15T18:12:11.192Z,17.93
2017-11-15T18:14:38.637Z,16.43
2017-11-15T18:17:06.833Z,18.17
2017-11-15T18:19:34.268Z,21.93
2017-11-15T18:22:01.708Z,18.10
2017-11-15T18:24:29.948Z,19.50
2017-11-15T18:26:57.407Z,24.47
2017-11-15T18:29:24.852Z,25.03
2017-11-15T18:31:52.318Z,21.07
2017-11-15T18:34:20.413Z,21.87
2017-11-15T18:36:47.831Z,19.53
2017-11-15T18:39:15.297Z,19.00
2017-11-15T18:41:42.742Z,20.53
2017-11-15T18:44:10.180Z,24.53
2017-11-15T18:46:37.672Z,22.70
2017-11-15T18:49:05.180Z,21.97
2017-11-15T18:51:33.390Z,20.50
2017-11-15T18:54:00.820Z,21.30
2017-11-15T18:56:28.320Z,21.10
2017-11-15T18:58:55.751Z,18.70
2017-11-15T19:01:23.196Z,19.80
2017-11-15T19:03:50.635Z,31.03
2017-11-15T19:06:18.846Z,21.30
2017-11-15T19:08:46.285Z,21.10
2017-11-15T19:11:15.216Z,20.60
2017-11-15T19:13:42.865Z,23.03
2017-11-15T19:16:10.304Z,20.07
2017-11-15T19:18:37.740Z,19.30
2017-11-15T19:21:05.180Z,20.03
2017-11-15T19:23:33.385Z,29.10
2017-11-15T19:26:00.864Z,31.20
2017-11-15T19:28:28.334Z,26.03
2017-11-15T19:30:55.764Z,22.77
2017-11-15T19:33:23.214Z,27.53
2017-11-15T19:35:50.681Z,25.17
2017-11-15T19:38:18.103Z,26.53
2017-11-15T19:40:45.605Z,22.43
2017-11-15T19:43:13.054Z,22.07
2017-11-15T19:45:40.600Z,28.90
2017-11-15T19:48:08.289Z,22.63
2017-11-15T19:50:35.737Z,24.43
2017-11-15T19:53:03.175Z,20.37
2017-11-15T19:55:30.647Z,21.30
2017-11-15T19:57:58.719Z,26.10
2017-11-15T20:00:26.158Z,23.60
2017-11-15T20:02:53.612Z,27.03
2017-11-15T20:05:21.040Z,24.27
2017-11-15T20:07:49.244Z,25.50
2017-11-15T20:10:16.721Z,26.40
2017-11-15T20:12:44.164Z,24.50
2017-11-15T20:15:11.605Z,25.13
2017-11-15T20:17:39.048Z,24.60
2017-11-15T20:20:06.480Z,25.10
2017-11-15T20:22:34.676Z,24.67
2017-11-15T20:25:02.186Z,23.47
2017-11-15T20:27:29.612Z,24.03
2017-11-15T20:29:57.098Z,63.00
2017-11-15T20:32:24.548Z,45.37
2017-11-15T20:34:51.987Z,25.87
2017-11-15T20:37:19.441Z,22.03
2017-11-15T20:39:46.876Z,22.53
2017-11-15T20:42:14.308Z,22.90
2017-11-15T20:44:42.549Z,25.33
2017-11-15T20:47:09.990Z,24.70
2017-11-15T20:49:37.425Z,24.77
2017-11-15T20:52:04.860Z,22.30
2017-11-15T20:54:33.073Z,26.57
2017-11-15T20:57:00.513Z,26.87
2017-11-15T20:59:27.948Z,27.50
2017-11-15T21:01:56.172Z,26.30
2017-11-15T21:04:23.609Z,32.33
2017-11-15T21:06:51.088Z,26.70
2017-11-15T21:09:18.548Z,24.80
2017-11-15T21:11:46.343Z,25.10
2017-11-15T21:14:13.804Z,26.00
2017-11-15T21:16:42.004Z,24.67
2017-11-15T21:19:09.440Z,24.63
2017-11-15T21:21:37.676Z,23.47
2017-11-15T21:24:05.120Z,26.87
2017-11-15T21:26:32.565Z,22.93
2017-11-15T21:31:50.756Z,25.17
2017-11-15T21:34:18.200Z,22.57
2017-11-15T21:36:46.572Z,28.43
2017-11-15T21:39:14.011Z,27.10
2017-11-15T21:41:41.487Z,29.37
2017-11-15T21:44:08.925Z,25.83
2017-11-15T21:46:36.368Z,28.13
2017-11-15T21:49:03.861Z,28.40
2017-11-15T21:51:32.207Z,25.27
2017-11-15T21:54:00.252Z,27.83
2017-11-15T21:56:28.490Z,26.63
2017-11-15T21:58:55.918Z,26.23
2017-11-15T22:01:23.365Z,29.07
2017-11-15T22:03:50.857Z,26.40
2017-11-15T22:06:18.718Z,25.57
2017-11-15T22:08:46.151Z,25.73
2017-11-15T22:11:13.592Z,27.20
2017-11-15T22:13:41.025Z,24.40
2017-11-15T22:16:09.223Z,24.30
2017-11-15T22:18:37.229Z,22.50
2017-11-15T22:21:04.673Z,23.00
2017-11-15T22:23:32.111Z,27.27
2017-11-15T22:25:59.547Z,25.87
2017-11-15T22:28:27.754Z,29.30
2017-11-15T22:30:55.223Z,30.63
2017-11-15T22:33:22.680Z,31.47
2017-11-15T22:35:50.118Z,33.50
2017-11-15T22:38:17.579Z,31.90
2017-11-15T22:40:45.004Z,28.40
2017-11-15T22:43:13.227Z,29.90
2017-11-15T22:45:40.667Z,31.90
2017-11-15T22:48:08.104Z,26.80
2017-11-15T22:50:35.595Z,26.97
2017-11-15T22:53:03.035Z,26.50
2017-11-15T22:55:30.575Z,24.13
2017-11-15T22:57:58.018Z,28.97
2017-11-15T23:00:26.220Z,28.73
2017-11-15T23:02:53.684Z,30.17
2017-11-15T23:05:21.121Z,25.70
2017-11-15T23:07:48.560Z,28.93
2017-11-15T23:10:16.773Z,25.00
2017-11-15T23:12:44.240Z,25.90
2017-11-15T23:15:11.801Z,27.43
2017-11-15T23:17:39.340Z,23.47
2017-11-15T23:20:06.788Z,24.60
2017-11-15T23:22:34.235Z,24.90
2017-11-15T23:25:01.677Z,25.50
2017-11-15T23:27:29.876Z,24.33
2017-11-15T23:29:57.361Z,24.23
2017-11-15T23:32:24.821Z,26.60
2017-11-15T23:34:52.267Z,23.53
2017-11-15T23:37:19.728Z,26.23
2017-11-15T23:39:47.187Z,29.40
2017-11-15T23:42:14.639Z,25.60
2017-11-15T23:44:42.368Z,24.63
2017-11-15T23:47:09.808Z,29.50
2017-11-15T23:49:38.016Z,26.27
2017-11-15T23:52:05.453Z,29.70
2017-11-15T23:54:33.352Z,33.23
2017-11-15T23:57:00.789Z,28.30
2017-11-15T23:59:28.289Z,28.87
